Time;durP1;ratioP1;P1;durP2;ratioP2;P2;SDS_P1;SDS_P2;PMS_P1;PMS_P2;Temp;Humidity;BMP_temperature;BMP_pressure;BME280_temperature;BME280_humidity;BME280_pressure;Samples;Min_cycle;Max_cycle;Signal;HPM_P1;HPM_P2
2022/07/04 00:00:53;;;;;;;6.95;4.65;;;29.50;53.00;;;;;;5072033;28;20028;-80
2022/07/04 00:03:19;;;;;;;5.78;4.10;;;29.60;53.00;;;;;;5053490;28;20033;-80
2022/07/04 00:05:45;;;;;;;7.38;4.30;;;29.70;52.80;;;;;;5071346;28;20040;-80
2022/07/04 00:08:10;;;;;;;5.70;4.35;;;29.80;52.80;;;;;;5070912;28;20127;-80
2022/07/04 00:10:36;;;;;;;4.70;4.20;;;29.80;52.70;;;;;;5053602;28;20067;-81
2022/07/04 00:13:02;;;;;;;7.75;3.85;;;29.70;52.80;;;;;;5053999;28;20021;-83
2022/07/04 00:15:28;;;;;;;5.97;4.07;;;29.70;53.00;;;;;;5053761;28;20082;-79
2022/07/04 00:17:53;;;;;;;8.98;4.45;;;29.60;53.00;;;;;;5072449;28;20020;-80
2022/07/04 00:20:19;;;;;;;6.13;4.20;;;29.60;53.20;;;;;;5053689;28;20021;-84
2022/07/04 00:22:45;;;;;;;5.95;4.43;;;29.60;53.20;;;;;;5053313;28;20020;-81
2022/07/04 00:25:11;;;;;;;7.55;4.78;;;29.70;53.20;;;;;;5071768;28;20040;-83
2022/07/04 00:27:37;;;;;;;5.47;4.65;;;29.60;53.60;;;;;;5069353;28;20042;-80
2022/07/04 00:30:04;;;;;;;7.07;4.70;;;29.60;53.50;;;;;;5071913;28;20395;-81
2022/07/04 00:32:30;;;;;;;8.30;4.90;;;29.60;53.50;;;;;;5070640;28;20033;-89
2022/07/04 00:34:56;;;;;;;7.03;4.75;;;29.60;53.70;;;;;;5035363;28;20400;-82
2022/07/04 00:37:21;;;;;;;6.50;4.53;;;29.50;53.50;;;;;;5069931;28;20099;-79
2022/07/04 00:39:47;;;;;;;5.70;4.43;;;29.60;53.60;;;;;;5069972;28;20032;-79
2022/07/04 00:42:13;;;;;;;6.53;4.85;;;29.60;53.70;;;;;;5070846;28;20036;-84
2022/07/04 00:44:39;;;;;;;7.72;4.97;;;29.60;53.60;;;;;;5071720;28;20115;-80
2022/07/04 00:47:05;;;;;;;7.47;4.72;;;29.40;53.80;;;;;;5057211;28;20032;-83
2022/07/04 00:49:31;;;;;;;6.03;4.93;;;29.50;53.70;;;;;;5071467;28;20078;-82
2022/07/04 00:51:58;;;;;;;8.77;5.13;;;29.40;53.90;;;;;;5074538;28;20021;-79
2022/07/04 00:54:27;;;;;;;6.80;4.80;;;29.30;54.00;;;;;;5074660;28;20021;-80
2022/07/04 00:56:55;;;;;;;6.23;4.77;;;29.20;54.10;;;;;;5073760;28;20036;-79
2022/07/04 00:59:20;;;;;;;6.78;4.60;;;29.10;54.30;;;;;;5074157;28;20273;-79
2022/07/04 01:01:46;;;;;;;8.13;4.88;;;29.00;54.70;;;;;;5073199;28;20028;-80
2022/07/04 01:04:12;;;;;;;6.72;4.78;;;28.90;54.70;;;;;;5075976;28;20383;-84
2022/07/04 01:06:38;;;;;;;6.30;4.78;;;28.80;54.70;;;;;;5074826;28;20387;-81
2022/07/04 01:09:04;;;;;;;6.00;4.65;;;28.80;55.00;;;;;;5075248;28;20382;-79
2022/07/04 01:11:30;;;;;;;7.53;4.82;;;28.80;54.80;;;;;;5073316;28;20036;-86
2022/07/04 01:13:57;;;;;;;6.72;5.10;;;28.80;54.80;;;;;;5057187;28;20051;-92
2022/07/04 01:16:25;;;;;;;6.28;5.13;;;28.70;54.90;;;;;;5073206;28;20037;-80
2022/07/04 01:18:52;;;;;;;6.60;5.13;;;28.60;55.10;;;;;;5075892;28;20353;-83
2022/07/04 01:21:18;;;;;;;8.30;5.72;;;28.60;55.20;;;;;;5056658;28;20037;-80
2022/07/04 01:23:45;;;;;;;8.30;5.65;;;28.50;55.30;;;;;;5072505;28;20503;-87
2022/07/04 01:26:11;;;;;;;8.18;5.53;;;28.60;55.30;;;;;;5057630;28;20043;-81
2022/07/04 01:28:37;;;;;;;6.78;5.22;;;28.70;55.00;;;;;;5052394;28;20471;-80
2022/07/04 01:31:03;;;;;;;7.13;5.10;;;28.70;54.80;;;;;;5074671;28;20063;-84
2022/07/04 01:33:29;;;;;;;9.52;5.32;;;28.70;54.80;;;;;;5057053;28;20028;-83
2022/07/04 01:35:55;;;;;;;6.40;4.93;;;28.70;54.60;;;;;;5073771;28;20029;-82
2022/07/04 01:38:21;;;;;;;5.97;4.88;;;28.70;54.20;;;;;;5074616;28;20036;-85
2022/07/04 01:40:47;;;;;;;5.85;5.03;;;28.70;54.40;;;;;;5074730;28;20033;-86
2022/07/04 01:43:13;;;;;;;7.68;5.15;;;28.70;54.40;;;;;;5040742;28;20037;-85
2022/07/04 01:45:39;;;;;;;6.70;5.47;;;28.60;54.80;;;;;;5056479;28;20047;-84
2022/07/04 01:48:06;;;;;;;7.55;4.88;;;28.70;55.00;;;;;;5073608;28;20028;-89
2022/07/04 01:50:32;;;;;;;6.65;5.30;;;28.40;55.40;;;;;;5075039;28;20447;-85
2022/07/04 01:52:58;;;;;;;6.78;4.95;;;28.40;55.30;;;;;;5073467;28;20023;-81
2022/07/04 01:55:24;;;;;;;6.07;5.22;;;28.40;55.30;;;;;;5056098;28;20105;-90
2022/07/04 01:57:50;;;;;;;6.53;5.20;;;28.50;55.20;;;;;;5064738;28;20032;-85
2022/07/04 02:03:00;;;;;;;5.90;4.93;;;28.50;55.40;;;;;;5061318;28;20501;-84
2022/07/04 02:05:26;;;;;;;7.82;5.43;;;28.50;55.50;;;;;;5073763;28;20040;-77
2022/07/04 02:07:54;;;;;;;6.65;5.20;;;28.60;55.40;;;;;;5074552;28;20020;-82
2022/07/04 02:10:20;;;;;;;9.27;5.32;;;28.50;55.70;;;;;;5074204;28;20149;-81
2022/07/04 02:13:01;;;;;;;6.82;5.30;;;28.50;55.50;;;;;;5054906;28;20024;-80
2022/07/04 02:15:36;;;;;;;7.00;5.68;;;28.60;55.50;;;;;;5075406;28;20029;-82
2022/07/04 02:18:07;;;;;;;7.00;5.43;;;28.60;55.70;;;;;;5055479;28;20016;-79
2022/07/04 02:20:34;;;;;;;6.65;5.68;;;28.60;55.30;;;;;;5055668;28;20058;-82
2022/07/04 02:23:00;;;;;;;6.38;5.28;;;28.50;55.50;;;;;;5074431;28;20051;-82
2022/07/04 02:25:26;;;;;;;7.47;5.63;;;28.50;55.60;;;;;;5055765;28;20049;-84
2022/07/04 02:27:52;;;;;;;6.45;5.28;;;28.50;55.70;;;;;;5055720;28;20028;-80
2022/07/04 02:30:18;;;;;;;7.47;5.78;;;28.60;55.70;;;;;;5054276;28;20043;-81
2022/07/04 02:32:43;;;;;;;7.50;5.20;;;28.50;56.40;;;;;;5055897;28;20032;-84
2022/07/04 02:35:10;;;;;;;8.38;5.47;;;28.50;55.70;;;;;;5056150;28;20062;-81
2022/07/04 02:37:36;;;;;;;6.50;5.85;;;28.50;55.70;;;;;;5053528;28;20028;-88
2022/07/04 02:40:03;;;;;;;8.25;5.70;;;28.40;55.70;;;;;;5051883;28;20029;-83
2022/07/04 02:42:31;;;;;;;7.70;5.38;;;28.40;55.70;;;;;;5072523;28;20031;-84
2022/07/04 02:44:57;;;;;;;9.35;5.60;;;28.30;55.70;;;;;;5071564;28;20542;-79
2022/07/04 02:47:23;;;;;;;6.68;5.35;;;28.30;55.70;;;;;;5072414;28;20031;-80
2022/07/04 02:49:49;;;;;;;6.38;5.60;;;28.40;55.90;;;;;;5072988;28;20103;-82
2022/07/04 02:52:15;;;;;;;9.63;6.05;;;28.40;55.60;;;;;;5055193;28;20024;-79
2022/07/04 02:54:41;;;;;;;7.40;5.70;;;28.40;55.60;;;;;;5055410;28;20060;-80
2022/07/04 02:57:07;;;;;;;7.18;5.60;;;28.40;55.70;;;;;;5054921;28;20039;-81
2022/07/04 02:59:34;;;;;;;8.07;5.72;;;28.30;55.40;;;;;;5054728;28;20120;-80
2022/07/04 03:01:59;;;;;;;7.88;6.05;;;28.10;55.60;;;;;;5054935;28;20025;-79
2022/07/04 03:04:25;;;;;;;6.35;5.50;;;28.00;55.50;;;;;;5055521;28;20036;-81
2022/07/04 03:06:51;;;;;;;6.18;5.35;;;28.00;55.40;;;;;;5053495;28;20028;-79
2022/07/04 03:09:16;;;;;;;9.35;6.07;;;28.00;55.50;;;;;;5073505;28;20070;-79
2022/07/04 03:11:43;;;;;;;8.32;5.85;;;28.00;55.60;;;;;;5053678;28;20825;-80
2022/07/04 03:14:09;;;;;;;6.05;5.22;;;28.00;55.70;;;;;;5072031;28;20031;-82
2022/07/04 03:16:35;;;;;;;6.90;5.88;;;28.00;55.80;;;;;;5070817;28;20119;-80
2022/07/04 03:19:01;;;;;;;7.20;6.00;;;28.00;55.90;;;;;;5073303;28;20434;-80
2022/07/04 03:21:26;;;;;;;7.78;5.72;;;28.00;56.10;;;;;;5072466;28;20115;-80
2022/07/04 03:23:58;;;;;;;8.48;6.20;;;28.10;55.80;;;;;;5071214;28;20094;-82
2022/07/04 03:26:29;;;;;;;7.30;5.88;;;28.10;55.90;;;;;;5055466;28;20487;-80
2022/07/04 03:28:55;;;;;;;8.13;6.07;;;28.20;56.10;;;;;;5071501;28;20456;-80
2022/07/04 03:31:21;;;;;;;12.57;6.00;;;28.30;56.10;;;;;;5072643;28;20103;-81
2022/07/04 03:33:47;;;;;;;8.52;6.10;;;28.20;56.40;;;;;;5072753;28;20422;-92
2022/07/04 03:36:13;;;;;;;8.02;6.25;;;28.10;56.60;;;;;;5071162;28;20028;-85
2022/07/04 03:38:41;;;;;;;8.35;6.10;;;28.00;56.70;;;;;;5071674;28;20044;-80
2022/07/04 03:41:07;;;;;;;8.50;5.57;;;27.90;56.80;;;;;;5072248;28;20021;-79
2022/07/04 03:43:33;;;;;;;8.00;5.93;;;27.90;56.40;;;;;;5054626;28;20497;-79
2022/07/04 03:45:58;;;;;;;6.82;5.75;;;27.90;56.30;;;;;;5071016;28;20472;-79
2022/07/04 03:48:27;;;;;;;7.93;5.97;;;27.80;56.20;;;;;;5072641;28;20035;-80
2022/07/04 03:50:53;;;;;;;8.02;6.10;;;27.80;56.50;;;;;;5072005;28;20043;-76
2022/07/04 03:53:19;;;;;;;8.40;6.32;;;27.70;56.90;;;;;;5072005;28;20029;-82
2022/07/04 03:55:46;;;;;;;8.65;6.22;;;27.50;57.20;;;;;;5072178;28;20158;-76
2022/07/04 03:58:12;;;;;;;9.55;6.15;;;27.40;57.70;;;;;;5069767;28;20036;-80
2022/07/04 04:00:37;;;;;;;7.55;6.15;;;27.20;58.20;;;;;;5071550;28;20037;-79
2022/07/04 04:05:25;;;;;;;8.75;6.28;;;27.00;58.50;;;;;;5072610;28;20028;-80
2022/07/04 04:05:49;;;;;;;9.57;6.03;;;27.40;58.00;;;;;;5071604;28;20036;-88
2022/07/04 04:08:14;;;;;;;7.60;6.28;;;27.80;57.50;;;;;;5054187;28;20032;-86
2022/07/04 04:10:40;;;;;;;8.68;6.35;;;28.00;57.00;;;;;;5072008;28;20425;-85
2022/07/04 04:13:06;;;;;;;8.60;6.28;;;28.20;56.70;;;;;;5071910;28;20037;-82
2022/07/04 04:15:31;;;;;;;7.57;6.10;;;28.30;56.20;;;;;;5053370;28;20590;-81
2022/07/04 04:17:57;;;;;;;6.57;5.65;;;28.30;56.30;;;;;;5049502;28;20082;-87
2022/07/04 04:20:23;;;;;;;8.38;6.28;;;28.30;56.30;;;;;;5057933;28;20103;-87
2022/07/04 04:22:50;;;;;;;8.02;6.03;;;28.30;56.30;;;;;;5057680;28;20395;-81
2022/07/04 04:25:16;;;;;;;9.60;6.00;;;28.40;55.80;;;;;;5074419;28;20135;-82
2022/07/04 04:27:42;;;;;;;6.90;6.03;;;28.60;56.00;;;;;;5053749;28;20046;-80
2022/07/04 04:30:08;;;;;;;9.45;6.35;;;28.80;55.70;;;;;;5076958;28;20068;-81
2022/07/04 04:32:34;;;;;;;7.57;6.13;;;29.00;54.80;;;;;;5075068;28;20078;-79
2022/07/04 04:35:00;;;;;;;7.65;6.03;;;29.30;55.00;;;;;;5076477;28;20032;-78
2022/07/04 04:37:25;;;;;;;7.43;5.88;;;29.40;55.00;;;;;;5076259;28;20025;-87
2022/07/04 04:39:51;;;;;;;8.05;5.80;;;29.40;54.30;;;;;;5058747;28;20029;-83
2022/07/04 04:42:17;;;;;;;9.77;5.95;;;29.40;54.20;;;;;;5057649;28;20043;-89
2022/07/04 04:44:44;;;;;;;7.78;5.90;;;29.40;54.40;;;;;;5058476;28;20040;-85
2022/07/04 04:47:09;;;;;;;7.25;6.50;;;29.40;55.00;;;;;;5074404;28;20052;-83
2022/07/04 04:49:35;;;;;;;10.52;5.97;;;29.70;54.80;;;;;;5055696;28;20048;-79
2022/07/04 04:52:01;;;;;;;6.75;5.60;;;29.70;54.30;;;;;;5056801;28;20432;-81
2022/07/04 04:54:26;;;;;;;8.50;6.07;;;29.80;54.10;;;;;;5073764;28;20024;-75
2022/07/04 04:56:52;;;;;;;6.60;5.70;;;30.00;53.40;;;;;;5075225;28;20115;-80
2022/07/04 04:59:18;;;;;;;8.52;5.57;;;30.10;53.30;;;;;;5057214;28;20066;-88
2022/07/04 05:01:43;;;;;;;9.10;5.43;;;30.30;53.30;;;;;;5075996;28;20075;-86
2022/07/04 05:04:10;;;;;;;9.52;6.35;;;30.30;53.10;;;;;;5042565;28;20033;-84
2022/07/04 05:06:36;;;;;;;8.20;5.90;;;30.30;53.60;;;;;;5052879;28;20391;-84
2022/07/04 05:09:01;;;;;;;6.57;5.30;;;30.40;53.00;;;;;;5058615;28;20039;-82
2022/07/04 05:11:27;;;;;;;8.13;5.70;;;30.50;52.60;;;;;;5057763;28;20494;-84
2022/07/04 05:13:53;;;;;;;7.40;6.30;;;30.60;52.80;;;;;;5057499;28;20039;-80
2022/07/04 05:16:19;;;;;;;6.95;5.57;;;30.70;52.60;;;;;;5073565;28;20063;-79
2022/07/04 05:18:44;;;;;;;8.45;5.88;;;30.80;52.60;;;;;;5074439;28;20494;-82
2022/07/04 05:21:10;;;;;;;6.47;5.55;;;30.80;52.20;;;;;;5055584;28;20028;-80
2022/07/04 05:23:36;;;;;;;8.23;5.40;;;30.80;52.20;;;;;;5056181;28;20123;-84
2022/07/04 05:26:01;;;;;;;7.75;5.70;;;31.00;52.40;;;;;;5056248;28;20044;-84
2022/07/04 05:28:30;;;;;;;8.65;6.25;;;31.10;52.30;;;;;;5056198;28;20021;-85
2022/07/04 05:30:56;;;;;;;8.68;5.68;;;31.00;51.90;;;;;;5041184;28;20067;-80
2022/07/04 05:33:22;;;;;;;9.07;6.15;;;30.90;52.10;;;;;;5076437;28;20725;-80
2022/07/04 05:35:47;;;;;;;9.52;5.40;;;30.90;52.00;;;;;;5074432;28;20029;-83
2022/07/04 05:38:16;;;;;;;7.95;5.70;;;30.80;51.30;;;;;;5074118;28;20016;-81
2022/07/04 05:40:42;;;;;;;6.18;5.03;;;31.00;51.60;;;;;;5057045;28;20028;-85
2022/07/04 05:43:07;;;;;;;7.15;5.40;;;31.20;51.70;;;;;;5074166;28;20024;-84
2022/07/04 05:45:36;;;;;;;7.00;5.53;;;31.40;51.40;;;;;;5051184;28;20120;-93
2022/07/04 05:48:02;;;;;;;8.90;5.55;;;31.70;51.20;;;;;;5056989;28;20036;-79
2022/07/04 05:50:28;;;;;;;6.18;5.35;;;31.80;50.80;;;;;;5055815;28;20028;-81
2022/07/04 05:52:54;;;;;;;7.80;5.45;;;31.80;50.70;;;;;;5073642;28;20023;-79
2022/07/04 05:55:20;;;;;;;7.35;5.38;;;31.80;50.90;;;;;;5056153;28;20032;-85
2022/07/04 05:57:45;;;;;;;6.50;5.50;;;31.80;50.60;;;;;;5056404;28;20116;-83
2022/07/04 06:00:12;;;;;;;6.63;5.47;;;32.10;49.90;;;;;;5054329;28;20029;-91
2022/07/04 06:02:37;;;;;;;7.22;5.57;;;32.30;50.10;;;;;;5074770;28;20021;-81
2022/07/04 06:05:04;;;;;;;8.10;5.32;;;32.50;50.20;;;;;;5074663;28;20093;-77
2022/07/04 06:07:29;;;;;;;7.20;5.18;;;32.70;49.40;;;;;;5056194;28;20024;-81
2022/07/04 06:09:55;;;;;;;7.70;5.60;;;33.00;49.20;;;;;;5075561;28;20040;-82
2022/07/04 06:12:21;;;;;;;6.38;5.32;;;33.40;48.80;;;;;;5075063;28;20048;-83
2022/07/04 06:14:47;;;;;;;7.65;5.30;;;33.60;47.90;;;;;;5074347;28;20021;-83
2022/07/04 06:17:12;;;;;;;7.22;4.97;;;33.80;48.10;;;;;;5074480;28;20040;-81
2022/07/04 06:19:38;;;;;;;7.00;5.32;;;33.80;47.20;;;;;;5072723;28;20420;-86
2022/07/04 06:22:04;;;;;;;8.85;5.32;;;33.70;48.30;;;;;;5073687;28;20036;-79
2022/07/04 06:24:30;;;;;;;6.10;4.80;;;33.60;47.90;;;;;;5071934;28;20049;-88
2022/07/04 06:26:55;;;;;;;6.05;4.75;;;33.60;48.40;;;;;;5055649;28;20480;-82
2022/07/04 06:29:21;;;;;;;6.43;4.90;;;33.80;48.60;;;;;;5055428;28;20472;-78
2022/07/04 06:31:47;;;;;;;6.43;4.68;;;33.80;48.20;;;;;;5055943;28;20031;-80
2022/07/04 06:36:57;;;;;;;7.35;4.60;;;34.30;47.70;;;;;;5074183;28;20038;-79
2022/07/04 06:39:23;;;;;;;6.65;4.63;;;34.40;47.30;;;;;;5055443;28;20020;-82
2022/07/04 06:41:51;;;;;;;6.97;4.78;;;34.40;47.60;;;;;;5065159;28;20032;-83
2022/07/04 06:44:17;;;;;;;6.13;4.30;;;34.50;47.20;;;;;;4722174;28;10000154;-80
2022/07/04 06:46:44;;;;;;;5.68;4.50;;;34.60;47.30;;;;;;5071910;28;20047;-81
2022/07/04 06:49:14;;;;;;;5.45;4.22;;;34.70;46.50;;;;;;5055665;28;20031;-90
2022/07/04 06:51:40;;;;;;;10.38;4.20;;;34.80;47.00;;;;;;5054882;28;20044;-81
2022/07/04 06:54:06;;;;;;;7.10;4.45;;;35.00;46.90;;;;;;5054837;28;20021;-82
2022/07/04 06:56:31;;;;;;;5.47;4.22;;;35.10;46.20;;;;;;5054056;28;20033;-86
2022/07/04 06:58:57;;;;;;;5.88;4.10;;;35.10;46.30;;;;;;5055400;28;20406;-81
2022/07/04 07:01:23;;;;;;;7.40;4.20;;;35.20;46.80;;;;;;5071706;28;20543;-85
2022/07/04 07:03:49;;;;;;;6.68;4.75;;;35.20;46.50;;;;;;5054635;28;20256;-88
2022/07/04 07:06:15;;;;;;;5.32;4.30;;;35.10;46.90;;;;;;5054671;28;20450;-80
2022/07/04 07:08:40;;;;;;;5.00;4.20;;;35.30;47.00;;;;;;5066391;28;20021;-77
2022/07/04 07:11:12;;;;;;;7.85;4.38;;;35.30;46.60;;;;;;5047492;28;20059;-78
2022/07/04 07:13:46;;;;;;;6.15;4.00;;;35.00;46.70;;;;;;5071244;28;20020;-82
2022/07/04 07:16:13;;;;;;;5.00;3.70;;;35.10;46.90;;;;;;5068209;28;20020;-79
2022/07/04 07:18:39;;;;;;;6.57;4.28;;;35.20;46.80;;;;;;5070087;28;20101;-92
2022/07/04 07:21:05;;;;;;;7.85;3.83;;;35.30;47.50;;;;;;5053217;28;20406;-81
2022/07/04 07:23:30;;;;;;;4.47;3.70;;;35.30;47.50;;;;;;5053586;28;20082;-84
2022/07/04 07:25:56;;;;;;;8.02;4.00;;;35.30;47.40;;;;;;5043537;28;20059;-82
2022/07/04 07:28:22;;;;;;;7.07;3.83;;;35.20;47.80;;;;;;5052626;28;20021;-80
2022/07/04 07:30:48;;;;;;;5.47;3.90;;;35.20;48.00;;;;;;5050976;28;20028;-87
2022/07/04 07:33:13;;;;;;;8.10;3.78;;;35.40;48.10;;;;;;5052837;28;20055;-83
2022/07/04 07:35:39;;;;;;;8.65;3.80;;;35.60;47.50;;;;;;5054328;28;20025;-84
2022/07/04 07:38:06;;;;;;;5.40;3.67;;;35.70;46.90;;;;;;5048424;28;20025;-85
2022/07/04 07:40:33;;;;;;;5.53;3.30;;;35.80;46.10;;;;;;5043256;28;20036;-85
2022/07/04 07:42:58;;;;;;;5.65;3.35;;;35.80;46.40;;;;;;5055862;28;20020;-89
2022/07/04 07:45:24;;;;;;;6.38;3.33;;;36.00;46.20;;;;;;5052226;28;20081;-82
2022/07/04 07:47:53;;;;;;;4.30;3.42;;;35.70;44.90;;;;;;5053882;28;20123;-82
2022/07/04 07:50:18;;;;;;;4.20;3.00;;;35.50;46.30;;;;;;5052380;28;20087;-84
2022/07/04 07:52:44;;;;;;;5.55;3.15;;;35.50;46.10;;;;;;5054360;28;20538;-84
2022/07/04 07:55:10;;;;;;;10.82;3.40;;;35.70;46.40;;;;;;5057257;28;20028;-76
2022/07/04 07:57:36;;;;;;;5.10;3.00;;;35.70;45.10;;;;;;5073259;28;20028;-79
2022/07/04 08:00:03;;;;;;;4.88;3.13;;;35.80;44.90;;;;;;5074744;28;20117;-83
2022/07/04 08:05:30;;;;;;;4.20;2.80;;;36.30;46.30;;;;;;4993821;28;20056;-77
2022/07/04 08:07:56;;;;;;;4.20;2.50;;;35.80;44.10;;;;;;4993712;28;20424;-82
2022/07/04 08:10:21;;;;;;;4.00;2.50;;;35.90;43.80;;;;;;4968741;28;20496;-85
2022/07/04 08:12:47;;;;;;;3.65;2.42;;;36.20;43.70;;;;;;4992750;28;20029;-82
2022/07/04 08:15:13;;;;;;;3.20;2.20;;;36.40;42.80;;;;;;4976039;28;20034;-83
2022/07/04 08:17:38;;;;;;;3.30;2.35;;;36.70;42.80;;;;;;4994234;28;20054;-81
2022/07/04 08:20:05;;;;;;;4.88;2.42;;;37.00;43.30;;;;;;4978607;28;20053;-86
2022/07/04 08:22:31;;;;;;;4.38;2.60;;;37.00;42.20;;;;;;4975889;28;20114;-87
2022/07/04 08:24:56;;;;;;;3.50;2.53;;;36.70;42.50;;;;;;4959002;28;20051;-81
2022/07/04 08:27:23;;;;;;;3.40;2.50;;;36.70;42.00;;;;;;4958727;28;20039;-84
2022/07/04 08:29:49;;;;;;;6.80;2.67;;;36.90;42.90;;;;;;4976113;28;20105;-91
2022/07/04 08:32:15;;;;;;;4.97;2.40;;;36.40;43.00;;;;;;4975774;28;20054;-85
2022/07/04 08:34:42;;;;;;;4.13;2.90;;;36.60;43.70;;;;;;4960202;28;20027;-83
2022/07/04 08:37:08;;;;;;;4.15;2.67;;;36.80;43.80;;;;;;4976187;28;20431;-85
2022/07/04 08:39:34;;;;;;;5.93;2.45;;;37.20;43.80;;;;;;5003255;28;20079;-85
2022/07/04 08:42:05;;;;;;;3.75;2.50;;;37.10;42.20;;;;;;5073229;28;20017;-91
2022/07/04 08:44:38;;;;;;;4.78;2.38;;;37.20;42.60;;;;;;4706915;28;9999655;-84
2022/07/04 08:47:08;;;;;;;4.28;2.30;;;37.40;42.50;;;;;;5055836;28;20029;-87
2022/07/04 08:49:34;;;;;;;;;;;37.30;41.30;;;;;;5055751;28;20056;-86
2022/07/04 08:52:05;;;;;;;6.07;2.35;;;37.30;41.50;;;;;;5055249;28;19955;-84
2022/07/04 09:00:05;;;;;;;3.42;2.47;;;37.30;40.10;;;;;;5053390;28;20044;-84
2022/07/04 09:02:42;;;;;;;3.92;2.33;;;37.30;40.80;;;;;;5053557;28;20029;-81
2022/07/04 09:05:09;;;;;;;5.93;2.03;;;37.30;40.00;;;;;;5038930;28;20052;-87
2022/07/04 09:07:34;;;;;;;4.00;1.95;;;36.90;39.60;;;;;;5055490;28;20048;-86
2022/07/04 09:10:03;;;;;;;5.28;2.25;;;37.10;41.10;;;;;;5072660;28;20039;-79
2022/07/04 09:12:29;;;;;;;3.63;2.22;;;37.30;41.00;;;;;;5073220;28;20399;-82
2022/07/04 09:14:56;;;;;;;3.10;2.10;;;37.50;40.60;;;;;;5055583;28;20029;-79
2022/07/04 09:17:22;;;;;;;3.20;2.10;;;37.90;40.20;;;;;;5055554;28;20433;-82
2022/07/04 09:20:18;;;;;;;2.90;2.17;;;37.70;41.30;;;;;;5072975;28;20471;-81
2022/07/04 09:22:45;;;;;;;3.20;2.20;;;37.50;40.90;;;;;;5073648;28;20411;-83
2022/07/04 09:25:15;;;;;;;4.97;2.25;;;37.50;41.30;;;;;;5055163;28;20044;-86
2022/07/04 09:27:47;;;;;;;3.37;2.20;;;37.70;41.70;;;;;;5054651;28;20682;-81
2022/07/04 09:30:21;;;;;;;3.75;2.30;;;37.70;40.80;;;;;;5055360;28;20037;-86
2022/07/04 09:32:51;;;;;;;3.92;2.10;;;37.90;41.80;;;;;;5044342;28;20059;-86
2022/07/04 09:35:19;;;;;;;;;;;38.00;41.10;;;;;;5054415;28;20021;-92
2022/07/04 09:37:59;;;;;;;3.22;2.30;;;38.00;40.90;;;;;;5036038;28;20401;-87
2022/07/04 09:41:24;;;;;;;4.35;2.20;;;38.20;41.80;;;;;;5036571;28;20025;-89
2022/07/04 09:43:23;;;;;;;3.35;2.20;;;38.50;41.30;;;;;;5059512;28;20041;-80
2022/07/04 09:46:00;;;;;;;6.22;2.10;;;38.50;41.10;;;;;;5055080;28;20028;-83
2022/07/04 09:48:47;;;;;;;4.15;1.80;;;38.60;41.30;;;;;;5054601;28;20085;-79
2022/07/04 09:51:12;;;;;;;3.38;2.10;;;38.50;41.70;;;;;;5072744;28;20055;-80
2022/07/04 09:53:38;;;;;;;2.80;1.90;;;38.40;40.00;;;;;;5073125;28;20114;-79
2022/07/04 09:56:04;;;;;;;3.30;2.15;;;38.50;40.60;;;;;;5054366;28;20031;-80
2022/07/04 09:58:29;;;;;;;3.22;1.80;;;38.60;40.90;;;;;;5060324;28;20478;-78
2022/07/04 10:00:59;;;;;;;3.10;2.08;;;38.60;40.60;;;;;;5077809;28;20456;-83
2022/07/04 10:03:32;;;;;;;3.25;2.03;;;38.40;39.00;;;;;;5036139;28;20086;-82
2022/07/04 10:06:11;;;;;;;3.88;2.20;;;38.70;40.00;;;;;;5043063;28;20056;-87
2022/07/04 10:08:37;;;;;;;4.93;4.47;;;38.90;39.30;;;;;;5053389;28;20064;-81
2022/07/04 10:11:04;;;;;;;4.82;1.85;;;39.00;38.30;;;;;;5054456;28;20103;-90
2022/07/04 10:13:30;;;;;;;2.70;1.90;;;38.80;38.50;;;;;;5074433;28;20056;-90
2022/07/04 10:15:57;;;;;;;4.80;1.60;;;38.70;38.50;;;;;;5054495;28;20059;-82
2022/07/04 10:18:24;;;;;;;3.25;1.85;;;38.80;39.10;;;;;;5055031;28;20548;-82
2022/07/04 10:20:51;;;;;;;2.95;1.75;;;38.80;38.50;;;;;;5054269;28;20028;-87
2022/07/04 10:23:21;;;;;;;4.57;1.90;;;38.80;38.50;;;;;;5057098;28;20563;-81
2022/07/04 10:25:53;;;;;;;3.28;2.00;;;39.00;38.80;;;;;;5072813;28;20075;-80
2022/07/04 10:28:19;;;;;;;3.45;1.70;;;38.70;38.60;;;;;;5073196;28;20484;-84
2022/07/04 10:30:53;;;;;;;2.60;1.75;;;38.80;39.00;;;;;;5071450;28;20060;-83
2022/07/04 10:33:25;;;;;;;2.97;1.80;;;39.20;40.80;;;;;;5056312;28;20024;-85
2022/07/04 10:35:53;;;;;;;5.18;1.88;;;39.20;39.60;;;;;;5074618;28;20028;-81
2022/07/04 10:38:21;;;;;;;4.78;1.70;;;39.40;39.10;;;;;;5054949;28;20025;-82
2022/07/04 10:40:59;;;;;;;3.45;2.00;;;38.80;38.80;;;;;;5073252;28;20382;-86
2022/07/04 10:43:25;;;;;;;4.38;2.10;;;38.90;39.10;;;;;;5055772;28;20120;-82
2022/07/04 10:45:52;;;;;;;4.45;2.17;;;38.90;39.10;;;;;;5056013;28;20383;-79
2022/07/04 10:48:22;;;;;;;5.85;2.20;;;39.20;38.70;;;;;;5073522;28;20039;-89
2022/07/04 10:51:02;;;;;;;6.55;2.20;;;39.70;39.30;;;;;;5056054;28;20021;-84
2022/07/04 10:53:28;;;;;;;3.17;2.10;;;39.60;38.50;;;;;;5055916;28;20043;-84
2022/07/04 10:56:23;;;;;;;3.50;1.98;;;39.70;38.90;;;;;;5074178;28;20463;-83
2022/07/04 10:58:50;;;;;;;4.50;2.13;;;40.10;39.20;;;;;;5045034;28;20391;-80
2022/07/04 11:01:18;;;;;;;2.85;1.77;;;39.80;37.50;;;;;;5073496;28;20032;-84
2022/07/04 11:03:49;;;;;;;4.03;1.80;;;39.50;38.10;;;;;;5054716;28;20085;-91
2022/07/04 11:06:44;;;;;;;3.00;1.90;;;39.30;38.00;;;;;;5055514;28;20036;-89
2022/07/04 11:09:16;;;;;;;5.15;2.83;;;39.20;38.40;;;;;;5050285;28;20029;-85
2022/07/04 11:11:48;;;;;;;5.45;1.75;;;39.20;37.60;;;;;;5055602;28;20044;-87
2022/07/04 11:14:39;;;;;;;2.90;2.00;;;39.20;38.70;;;;;;5055816;28;20037;-88
2022/07/04 11:17:07;;;;;;;5.90;2.03;;;39.20;38.30;;;;;;5055979;28;20059;-88
2022/07/04 11:19:33;;;;;;;5.35;1.85;;;39.40;39.50;;;;;;5073045;28;20032;-78
2022/07/04 11:21:59;;;;;;;2.78;1.70;;;39.30;37.70;;;;;;5073276;28;20055;-85
2022/07/04 11:24:26;;;;;;;5.40;2.15;;;39.40;38.50;;;;;;5071656;28;20120;-81
2022/07/04 11:26:52;;;;;;;3.38;1.90;;;39.50;38.40;;;;;;5055216;28;20032;-92
2022/07/04 11:29:18;;;;;;;3.13;1.85;;;39.40;37.20;;;;;;5055538;28;20033;-87
2022/07/04 11:31:50;;;;;;;2.90;1.80;;;39.20;38.20;;;;;;5072330;28;20025;-87
2022/07/04 11:34:15;;;;;;;3.22;1.80;;;39.60;38.20;;;;;;5055602;28;20407;-80
2022/07/04 11:36:44;;;;;;;3.35;1.88;;;39.60;37.40;;;;;;5072087;28;20020;-81
2022/07/04 11:39:12;;;;;;;3.05;1.83;;;39.50;37.20;;;;;;5073361;28;20024;-90
2022/07/04 11:47:17;;;;;;;4.80;1.80;;;39.60;37.00;;;;;;5073653;28;20086;-82
2022/07/04 11:49:49;;;;;;;3.63;1.85;;;39.80;38.00;;;;;;5055344;28;20056;-78
2022/07/04 11:52:19;;;;;;;3.25;1.98;;;39.90;38.30;;;;;;5073508;28;20025;-81
2022/07/04 11:54:47;;;;;;;2.90;1.90;;;39.90;36.40;;;;;;5073143;28;20035;-84
2022/07/04 11:57:16;;;;;;;3.72;1.73;;;39.80;37.00;;;;;;5054738;28;20032;-85
2022/07/04 11:59:43;;;;;;;4.50;2.00;;;39.80;37.00;;;;;;5055298;28;20043;-88
2022/07/04 12:02:14;;;;;;;4.50;1.80;;;39.90;37.30;;;;;;5072918;28;20025;-81
2022/07/04 12:04:41;;;;;;;3.70;1.90;;;39.60;36.50;;;;;;5054534;28;20021;-86
2022/07/04 12:07:18;;;;;;;3.30;2.17;;;39.60;36.90;;;;;;5055107;28;20458;-83
2022/07/04 12:09:46;;;;;;;4.13;1.90;;;39.80;37.70;;;;;;5055447;28;20020;-90
2022/07/04 12:12:13;;;;;;;6.03;1.77;;;40.00;37.60;;;;;;5055101;28;20024;-83
2022/07/04 12:14:40;;;;;;;2.88;1.80;;;40.20;38.20;;;;;;5055163;28;20033;-81
2022/07/04 12:17:15;;;;;;;5.45;2.42;;;39.90;36.70;;;;;;5073051;28;20110;-89
2022/07/04 12:19:52;;;;;;;3.17;1.85;;;39.80;38.80;;;;;;5073087;28;20021;-86
2022/07/04 12:22:27;;;;;;;3.17;2.03;;;39.80;38.00;;;;;;4717881;28;10000329;-78
2022/07/04 12:24:53;;;;;;;3.45;1.90;;;40.30;37.70;;;;;;5092126;28;20508;-86
2022/07/04 12:27:19;;;;;;;2.53;1.60;;;40.00;37.70;;;;;;5073366;28;20497;-85
2022/07/04 12:29:49;;;;;;;3.03;1.90;;;40.00;37.50;;;;;;5074322;28;20073;-81
2022/07/04 12:32:15;;;;;;;2.67;1.83;;;39.90;36.70;;;;;;5092987;28;20356;-89
2022/07/04 12:34:41;;;;;;;3.55;2.10;;;39.80;38.20;;;;;;5075012;28;20027;-85
2022/07/04 12:37:10;;;;;;;5.30;2.10;;;40.00;37.60;;;;;;5093025;28;20024;-84
2022/07/04 12:39:39;;;;;;;2.97;1.90;;;40.00;37.00;;;;;;5095715;28;20020;-95
2022/07/04 12:42:19;;;;;;;6.10;2.30;;;40.20;37.40;;;;;;5096903;28;20020;-84
2022/07/04 12:44:49;;;;;;;2.90;2.00;;;40.30;37.80;;;;;;5096227;28;20063;-88
2022/07/04 12:47:15;;;;;;;3.67;2.10;;;40.10;38.30;;;;;;5096910;28;20027;-80
2022/07/04 12:49:45;;;;;;;4.25;2.10;;;40.10;38.20;;;;;;5078458;28;20024;-78
2022/07/04 12:52:16;;;;;;;3.88;2.10;;;40.30;38.30;;;;;;5096358;28;20025;-84
2022/07/04 12:54:45;;;;;;;3.88;2.20;;;40.50;39.40;;;;;;5096378;28;20024;-87
2022/07/04 12:57:18;;;;;;;5.22;2.08;;;40.60;38.40;;;;;;5078239;28;20070;-85
2022/07/04 12:59:44;;;;;;;4.25;2.45;;;40.30;38.20;;;;;;5096207;28;20032;-77
2022/07/04 13:02:14;;;;;;;5.50;2.05;;;40.00;37.80;;;;;;5078421;28;20031;-89
2022/07/04 13:04:40;;;;;;;3.97;2.40;;;40.10;38.60;;;;;;5096356;28;20013;-82
2022/07/04 13:07:16;;;;;;;5.20;2.55;;;40.10;38.60;;;;;;5096285;28;20024;-82
2022/07/04 13:09:43;;;;;;;3.75;2.40;;;40.00;37.90;;;;;;5096342;28;20016;-83